createdAt,value
2023-04-18T00:00:06.132Z,230.1538
2023-04-18T00:01:07.133Z,233.6923
2023-04-18T00:02:08.263Z,234.6923
2023-04-18T00:03:09.528Z,231.2308
2023-04-18T00:04:10.524Z,223.0769
2023-04-18T00:05:11.429Z,227.5385
2023-04-18T00:06:12.355Z,221.0769
2023-04-18T00:07:13.390Z,217.8462
2023-04-18T00:08:14.477Z,223.0000
2023-04-18T00:09:15.486Z,221.3846
2023-04-18T00:10:16.511Z,227.8462
2023-04-18T00:11:17.532Z,234.4615
2023-04-18T00:12:18.570Z,231.9231
2023-04-18T00:13:19.673Z,226.1538
2023-04-18T00:14:20.664Z,232.1538
2023-04-18T00:15:21.695Z,230.4615
2023-04-18T00:16:22.816Z,233.9231
2023-04-18T00:17:23.825Z,235.3846
2023-04-18T00:18:24.851Z,244.0000
2023-04-18T00:19:25.856Z,255.3077
2023-04-18T00:20:26.893Z,251.2308
2023-04-18T00:21:27.963Z,257.1538
2023-04-18T00:22:28.973Z,262.6154
2023-04-18T00:23:30.055Z,248.9231
2023-04-18T00:24:31.030Z,241.6923
2023-04-18T00:25:32.117Z,248.0769
2023-04-18T00:26:33.109Z,251.7692
2023-04-18T00:27:34.176Z,250.3846
2023-04-18T00:28:35.267Z,242.5385
2023-04-18T00:29:36.237Z,240.2308
2023-04-18T00:30:37.354Z,246.6923
2023-04-18T00:31:38.323Z,238.4615
2023-04-18T00:32:39.410Z,240.1538
2023-04-18T00:33:40.461Z,241.1538
2023-04-18T00:34:41.462Z,240.6923
2023-04-18T00:35:42.475Z,244.0000
2023-04-18T00:36:43.546Z,253.0000
2023-04-18T00:37:44.615Z,244.4615
2023-04-18T00:38:45.658Z,232.6154
2023-04-18T00:39:46.621Z,233.9231
2023-04-18T00:40:47.689Z,235.0769
2023-04-18T00:41:48.687Z,237.0000
2023-04-18T00:42:49.754Z,231.6923
2023-04-18T00:43:50.737Z,237.0769
2023-04-18T00:44:51.731Z,248.9231
2023-04-18T00:45:52.754Z,254.2308
2023-04-18T00:46:53.792Z,254.2308
2023-04-18T00:47:54.884Z,248.9231
2023-04-18T00:48:55.893Z,251.0769
2023-04-18T00:49:56.941Z,256.6923
2023-04-18T00:50:57.944Z,247.7692
2023-04-18T00:51:58.996Z,239.5385
2023-04-18T00:53:00.048Z,248.0000
2023-04-18T00:54:01.124Z,253.0769
2023-04-18T00:55:02.115Z,251.2308
2023-04-18T00:56:03.170Z,251.9231
2023-04-18T00:57:04.196Z,248.7692
2023-04-18T00:58:05.241Z,240.7692
2023-04-18T00:59:06.314Z,245.8462
2023-04-18T01:00:07.312Z,256.4615
2023-04-18T01:01:08.393Z,262.5385
2023-04-18T01:02:09.420Z,258.3077
2023-04-18T01:03:10.715Z,250.6923
2023-04-18T01:04:11.699Z,246.9231
2023-04-18T01:05:12.503Z,249.6923
2023-04-18T01:06:13.545Z,254.8462
2023-04-18T01:07:14.577Z,249.8462
2023-04-18T01:08:15.619Z,248.8462
2023-04-18T01:09:16.712Z,245.1538
2023-04-18T01:10:17.709Z,255.4615
2023-04-18T01:11:18.754Z,280.6923
2023-04-18T01:12:19.781Z,260.5385
2023-04-18T01:13:20.826Z,257.9231
2023-04-18T01:14:21.916Z,260.0769
2023-04-18T01:15:22.946Z,269.9231
2023-04-18T01:16:24.069Z,273.9231
2023-04-18T01:17:25.015Z,276.9231
2023-04-18T01:18:26.007Z,264.0769
2023-04-18T01:19:27.115Z,260.7692
2023-04-18T01:20:28.110Z,265.1538
2023-04-18T01:21:29.164Z,245.6154
2023-04-18T01:22:30.187Z,241.9231
2023-04-18T01:23:31.240Z,247.3077
2023-04-18T01:24:32.297Z,244.1538
2023-04-18T01:25:33.303Z,241.4615
2023-04-18T01:26:34.351Z,241.0000
2023-04-18T01:27:35.382Z,250.3077
2023-04-18T01:28:36.428Z,265.3846
2023-04-18T01:29:38.959Z,251.0769
2023-04-18T01:30:38.583Z,247.2308
2023-04-18T01:31:39.596Z,244.8462
2023-04-18T01:32:40.736Z,245.2308
2023-04-18T01:33:41.643Z,254.9231
2023-04-18T01:34:42.707Z,263.0769
2023-04-18T01:35:43.735Z,259.7692
2023-04-18T01:36:44.765Z,248.4615
2023-04-18T01:37:45.809Z,263.3846
2023-04-18T01:38:46.848Z,252.2308
2023-04-18T01:39:47.919Z,250.3077
2023-04-18T01:40:48.917Z,245.3077
2023-04-18T01:41:49.946Z,241.5385
2023-04-18T01:42:51.009Z,254.6923
2023-04-18T01:43:52.034Z,257.7692
2023-04-18T01:44:53.109Z,269.6923
2023-04-18T01:45:54.104Z,265.9231
2023-04-18T01:46:55.204Z,261.6154
2023-04-18T01:47:56.272Z,250.6154
2023-04-18T01:48:57.234Z,262.3846
2023-04-18T01:49:58.286Z,254.5385
2023-04-18T01:50:59.310Z,241.3846
2023-04-18T01:52:00.360Z,238.3846
2023-04-18T01:53:01.394Z,244.5385
2023-04-18T01:54:02.425Z,247.0000
2023-04-18T01:55:03.480Z,237.3077
2023-04-18T01:56:04.497Z,235.3846
2023-04-18T01:57:05.539Z,235.5385
2023-04-18T01:58:06.577Z,240.3846
2023-04-18T01:59:07.620Z,233.0769
2023-04-18T02:00:08.682Z,232.3077
2023-04-18T02:01:09.734Z,238.5385
2023-04-18T02:02:10.822Z,240.8462
2023-04-18T02:03:11.832Z,241.6154
2023-04-18T02:04:13.158Z,256.6923
2023-04-18T02:05:13.879Z,262.7692
2023-04-18T02:06:14.954Z,257.3846
2023-04-18T02:07:15.967Z,237.6154
2023-04-18T02:08:16.945Z,234.5385
2023-04-18T02:09:17.992Z,241.1538
2023-04-18T02:10:19.068Z,237.3846
2023-04-18T02:11:20.111Z,234.2308
2023-04-18T02:12:21.118Z,235.0769
2023-04-18T02:13:22.157Z,243.8462
2023-04-18T02:14:23.181Z,246.6154
2023-04-18T02:15:24.263Z,251.1538
2023-04-18T02:16:25.281Z,250.9231
2023-04-18T02:17:26.293Z,252.1538
2023-04-18T02:18:27.359Z,248.1538
2023-04-18T02:19:28.379Z,246.1538
2023-04-18T02:20:29.436Z,242.3846
2023-04-18T02:21:30.487Z,239.6923
2023-04-18T02:22:31.510Z,242.7692
2023-04-18T02:23:32.565Z,250.7692
2023-04-18T02:24:33.594Z,243.9231
2023-04-18T02:25:34.675Z,243.3077
2023-04-18T02:26:35.706Z,249.4615
2023-04-18T02:27:36.718Z,253.7692
2023-04-18T02:28:37.754Z,249.3846
2023-04-18T02:29:38.816Z,246.5385
2023-04-18T02:30:39.896Z,245.4615
2023-04-18T02:31:40.902Z,241.9231
2023-04-18T02:32:41.922Z,236.5385
2023-04-18T02:33:42.936Z,245.9231
2023-04-18T02:34:43.998Z,246.7692
2023-04-18T02:35:45.045Z,246.7692
2023-04-18T02:36:46.083Z,246.6154
2023-04-18T02:37:47.113Z,251.5385
2023-04-18T02:38:48.160Z,260.1538
2023-04-18T02:39:49.209Z,255.2308
2023-04-18T02:40:50.253Z,266.8462
2023-04-18T02:41:51.321Z,265.7692
2023-04-18T02:42:52.373Z,257.2308
2023-04-18T02:43:53.369Z,253.5385
2023-04-18T02:44:54.398Z,247.7692
2023-04-18T02:45:55.499Z,248.0769
2023-04-18T02:46:56.469Z,247.3077
2023-04-18T02:47:57.580Z,259.0769
2023-04-18T02:48:58.572Z,265.3846
2023-04-18T02:49:59.631Z,251.1538
2023-04-18T02:51:00.695Z,249.3077
2023-04-18T02:52:01.709Z,247.7692
2023-04-18T02:53:02.768Z,248.5385
2023-04-18T02:54:03.828Z,265.3846
2023-04-18T02:55:04.832Z,262.2308
2023-04-18T02:56:05.929Z,252.1538
2023-04-18T02:57:06.932Z,253.8462
2023-04-18T02:58:07.998Z,270.6154
2023-04-18T02:59:08.996Z,262.0000
2023-04-18T03:00:10.041Z,251.1538
2023-04-18T03:01:11.141Z,250.9231
2023-04-18T03:02:12.129Z,244.4615
2023-04-18T03:03:13.229Z,242.0000
2023-04-18T03:04:14.464Z,245.6154
2023-04-18T03:05:15.217Z,241.2308
2023-04-18T03:06:16.379Z,241.0000
2023-04-18T03:07:17.325Z,247.3846
2023-04-18T03:08:18.360Z,247.9231
2023-04-18T03:09:19.411Z,247.4615
2023-04-18T03:10:20.494Z,249.3077
2023-04-18T03:11:21.574Z,247.5385
2023-04-18T03:12:22.589Z,241.7692
2023-04-18T03:13:23.661Z,241.8462
2023-04-18T03:14:24.672Z,237.7692
2023-04-18T03:15:25.718Z,233.8462
2023-04-18T03:16:26.829Z,237.6154
2023-04-18T03:17:27.806Z,239.4615
2023-04-18T03:18:28.867Z,242.7692
2023-04-18T03:19:29.858Z,240.9231
2023-04-18T03:20:30.918Z,237.6923
2023-04-18T03:21:32.001Z,239.6154
2023-04-18T03:22:33.042Z,241.2308
2023-04-18T03:23:34.052Z,241.1538
2023-04-18T03:24:35.121Z,238.5385
2023-04-18T03:25:36.129Z,239.8462
2023-04-18T03:26:37.207Z,236.4615
2023-04-18T03:27:38.267Z,239.1538
2023-04-18T03:28:39.285Z,238.6154
2023-04-18T03:29:40.295Z,239.3846
2023-04-18T03:30:41.336Z,241.1538
2023-04-18T03:31:42.523Z,243.8462
2023-04-18T03:32:43.525Z,248.0769
2023-04-18T03:33:44.475Z,243.5385
2023-04-18T03:34:45.516Z,245.0769
2023-04-18T03:35:46.535Z,241.6923
2023-04-18T03:36:48.156Z,242.5385
2023-04-18T03:37:48.615Z,262.8462
2023-04-18T03:38:49.756Z,277.2308
2023-04-18T03:39:50.717Z,262.5385
2023-04-18T03:40:51.736Z,254.0769
2023-04-18T03:41:52.773Z,250.5385
2023-04-18T03:42:53.851Z,246.0769
2023-04-18T03:43:54.866Z,245.3077
2023-04-18T03:44:55.880Z,250.3077
2023-04-18T03:45:57.131Z,255.6154
2023-04-18T03:46:57.958Z,267.0769
2023-04-18T03:47:59.041Z,268.7692
2023-04-18T03:49:00.036Z,266.3077
2023-04-18T03:50:01.064Z,275.6923
2023-04-18T03:51:02.103Z,269.0769
2023-04-18T03:52:03.155Z,277.7692
2023-04-18T03:53:04.213Z,261.0769
2023-04-18T03:54:05.255Z,252.2308
2023-04-18T03:55:06.257Z,265.1538
2023-04-18T03:56:07.326Z,266.3846
2023-04-18T03:57:08.517Z,256.4615
2023-04-18T03:58:09.457Z,239.3846
2023-04-18T03:59:10.460Z,243.4615
2023-04-18T04:00:11.464Z,245.5385
2023-04-18T04:01:12.498Z,242.9231
2023-04-18T04:02:13.592Z,252.4615
2023-04-18T04:03:14.698Z,255.6923
2023-04-18T04:04:16.216Z,254.0769
2023-04-18T04:05:16.677Z,254.6923
2023-04-18T04:06:17.744Z,257.6923
2023-04-18T04:07:18.741Z,251.2308
2023-04-18T04:08:19.842Z,259.2308
2023-04-18T04:09:20.835Z,263.2308
2023-04-18T04:10:21.877Z,253.7692
2023-04-18T04:11:23.110Z,250.6923
2023-04-18T04:12:23.944Z,249.6154
2023-04-18T04:13:24.998Z,246.6154
2023-04-18T04:14:26.150Z,245.6923
2023-04-18T04:15:27.081Z,255.8462
2023-04-18T04:16:28.294Z,267.3846
2023-04-18T04:17:29.339Z,262.1538
2023-04-18T04:18:30.222Z,250.5385
2023-04-18T04:19:31.247Z,243.8462
2023-04-18T04:20:32.271Z,241.4615
2023-04-18T04:21:33.282Z,240.5385
2023-04-18T04:22:34.360Z,244.6154
2023-04-18T04:23:35.438Z,238.9231
2023-04-18T04:24:36.445Z,244.5385
2023-04-18T04:25:37.448Z,248.0000
2023-04-18T04:26:38.634Z,256.8462
2023-04-18T04:27:39.545Z,253.4615
2023-04-18T04:28:40.624Z,260.2308
2023-04-18T04:29:41.650Z,252.0000
2023-04-18T04:30:42.656Z,248.0769
2023-04-18T04:31:43.813Z,252.3846
2023-04-18T04:32:44.781Z,261.6154
2023-04-18T04:33:45.810Z,252.8462
2023-04-18T04:34:46.828Z,258.7692
2023-04-18T04:35:47.886Z,270.0000
2023-04-18T04:36:48.909Z,281.2308
2023-04-18T04:37:49.938Z,283.1538
2023-04-18T04:38:51.018Z,275.2308
2023-04-18T04:39:52.000Z,266.8462
2023-04-18T04:40:53.052Z,265.6923
2023-04-18T04:41:54.120Z,282.0000
2023-04-18T04:42:55.115Z,299.0000
2023-04-18T04:43:56.179Z,289.8462
2023-04-18T04:44:57.275Z,282.6923
2023-04-18T04:45:58.253Z,275.6154
2023-04-18T04:46:59.438Z,252.6154
2023-04-18T04:48:00.400Z,247.2308
2023-04-18T04:49:01.401Z,241.0769
2023-04-18T04:50:02.388Z,236.1538
2023-04-18T04:51:03.596Z,240.6154
2023-04-18T04:52:04.464Z,239.2308
2023-04-18T04:53:05.502Z,232.5385
2023-04-18T04:54:06.551Z,233.8462
2023-04-18T04:55:07.697Z,235.1538
2023-04-18T04:56:08.629Z,242.6154
2023-04-18T04:57:09.669Z,243.0769
2023-04-18T04:58:10.698Z,249.0000
2023-04-18T04:59:11.738Z,256.6154
2023-04-18T05:00:12.745Z,252.4615
2023-04-18T05:01:13.874Z,237.7692
2023-04-18T05:02:14.959Z,225.6154
2023-04-18T05:03:16.070Z,230.7692
2023-04-18T05:04:17.477Z,208.2308
2023-04-18T05:05:18.073Z,193.3846
2023-04-18T05:06:19.061Z,218.8462
2023-04-18T05:07:20.212Z,232.1538
2023-04-18T05:08:21.134Z,234.0769
2023-04-18T05:09:22.301Z,222.6154
2023-04-18T05:10:23.202Z,208.3846
2023-04-18T05:11:24.254Z,198.2308
2023-04-18T05:12:25.295Z,199.8462
2023-04-18T05:13:26.340Z,223.3077
2023-04-18T05:14:27.419Z,238.6923
2023-04-18T05:15:28.425Z,230.1538
2023-04-18T05:16:29.456Z,223.3077
2023-04-18T05:17:30.510Z,210.6154
2023-04-18T05:18:33.059Z,228.0000
2023-04-18T05:19:32.599Z,192.0769
2023-04-18T05:20:33.579Z,179.2308
2023-04-18T05:21:34.610Z,213.4615
2023-04-18T05:22:35.722Z,244.6154
2023-04-18T05:23:36.681Z,255.3077
2023-04-18T05:24:37.800Z,259.1538
2023-04-18T05:25:38.767Z,257.1538
2023-04-18T05:26:39.794Z,243.3846
2023-04-18T05:27:40.870Z,157.1538
2023-04-18T05:28:41.907Z,170.7692
2023-04-18T05:29:42.970Z,203.7692
2023-04-18T05:30:44.024Z,204.9231
2023-04-18T05:31:44.999Z,171.3077
2023-04-18T05:32:46.190Z,221.7692
2023-04-18T05:33:47.086Z,242.0000
2023-04-18T05:34:48.167Z,247.9231
2023-04-18T05:35:49.181Z,246.6923
2023-04-18T05:36:50.263Z,245.6154
2023-04-18T05:37:51.202Z,247.5385
2023-04-18T05:38:52.276Z,263.3846
2023-04-18T05:39:53.350Z,258.5385
2023-04-18T05:40:54.363Z,224.0000
2023-04-18T05:41:55.391Z,226.1538
2023-04-18T05:42:56.417Z,199.0769
2023-04-18T05:44:04.923Z,184.3077
2023-04-18T05:44:58.535Z,151.4615
2023-04-18T05:45:59.623Z,207.0000
2023-04-18T05:47:00.560Z,237.8462
2023-04-18T05:48:01.833Z,217.7692
2023-04-18T05:49:02.632Z,210.8462
2023-04-18T05:50:03.755Z,182.8462
2023-04-18T05:51:04.712Z,215.3846
2023-04-18T05:52:05.750Z,223.0000
2023-04-18T05:53:06.809Z,218.0769
2023-04-18T05:54:07.873Z,73.5385
2023-04-18T05:55:08.936Z,50.6154
2023-04-18T05:56:09.958Z,174.6923
2023-04-18T05:57:10.971Z,227.3077
2023-04-18T05:58:12.290Z,238.6154
2023-04-18T05:59:13.046Z,249.5385
2023-04-18T06:00:14.187Z,245.6154
2023-04-18T06:01:15.342Z,245.3077
2023-04-18T06:02:16.165Z,249.2308
2023-04-18T06:03:17.543Z,254.3077
2023-04-18T06:04:18.464Z,271.4615
2023-04-18T06:05:19.719Z,235.3846
2023-04-18T06:06:20.254Z,227.1538
2023-04-18T06:07:21.306Z,216.8462
2023-04-18T06:08:22.344Z,211.6154
2023-04-18T06:09:23.412Z,205.8462
2023-04-18T06:10:24.467Z,235.6154
2023-04-18T06:11:25.509Z,207.2308
2023-04-18T06:12:26.524Z,204.2308
2023-04-18T06:13:27.556Z,240.5385
2023-04-18T06:14:28.581Z,250.7692
2023-04-18T06:15:29.665Z,268.3077
2023-04-18T06:16:30.733Z,278.1538
2023-04-18T06:17:31.743Z,286.6923
2023-04-18T06:18:32.749Z,280.2308
2023-04-18T06:19:33.803Z,270.0000
2023-04-18T06:20:34.826Z,269.1538
2023-04-18T06:21:35.851Z,267.5385
2023-04-18T06:22:36.914Z,265.0000
2023-04-18T06:23:37.958Z,277.9231
2023-04-18T06:24:38.966Z,287.0000
2023-04-18T06:25:40.012Z,238.0769
2023-04-18T06:26:41.057Z,115.6923
2023-04-18T06:27:42.092Z,61.4615
2023-04-18T06:28:43.118Z,176.6923
2023-04-18T06:29:44.154Z,227.5385
2023-04-18T06:30:45.151Z,237.7692
2023-04-18T06:31:46.307Z,248.0769
2023-04-18T06:32:47.361Z,238.0769
2023-04-18T06:33:48.258Z,236.0000
2023-04-18T06:34:49.310Z,254.6154
2023-04-18T06:35:50.359Z,242.6923
2023-04-18T06:36:51.410Z,240.7692
2023-04-18T06:37:52.640Z,258.9231
2023-04-18T06:38:53.558Z,281.1538
2023-04-18T06:39:54.650Z,279.4615
2023-04-18T06:40:55.663Z,263.0000
2023-04-18T06:41:56.735Z,244.2308
2023-04-18T06:42:57.710Z,259.6154
2023-04-18T06:44:04.229Z,258.7692
2023-04-18T06:44:59.811Z,235.6923
2023-04-18T06:46:00.852Z,233.3077
2023-04-18T06:47:02.162Z,242.5385
2023-04-18T06:48:02.948Z,240.3846
2023-04-18T06:49:03.977Z,245.3077
2023-04-18T06:50:04.988Z,254.7692
2023-04-18T06:51:06.045Z,260.6923
2023-04-18T06:52:07.140Z,260.2308
2023-04-18T06:53:08.171Z,253.0000
2023-04-18T06:54:09.166Z,263.6923
2023-04-18T06:55:10.166Z,261.2308
2023-04-18T06:56:11.231Z,269.7692
2023-04-18T06:57:12.290Z,271.9231
2023-04-18T06:58:13.289Z,266.2308
2023-04-18T06:59:14.514Z,263.3846
2023-04-18T07:00:15.395Z,258.3846
2023-04-18T07:01:16.412Z,264.5385
2023-04-18T07:02:17.498Z,257.6154
2023-04-18T07:03:18.745Z,254.0000
2023-04-18T07:04:19.870Z,251.1538
2023-04-18T07:05:20.518Z,243.2308
2023-04-18T07:06:21.613Z,244.1538
2023-04-18T07:07:22.636Z,249.6923
2023-04-18T07:08:23.654Z,253.0769
2023-04-18T07:09:24.716Z,248.6154
2023-04-18T07:10:25.735Z,253.3077
2023-04-18T07:11:26.843Z,263.8462
2023-04-18T07:12:27.929Z,192.1538
2023-04-18T07:13:28.912Z,142.6923
2023-04-18T07:14:30.820Z,223.0769
2023-04-18T07:15:31.005Z,253.0000
2023-04-18T07:16:32.067Z,273.3077
2023-04-18T07:17:33.168Z,280.0000
2023-04-18T07:18:38.117Z,287.5385
2023-04-18T07:19:35.145Z,287.6154
2023-04-18T07:20:36.195Z,268.6923
2023-04-18T07:21:37.111Z,256.5385
2023-04-18T07:22:38.276Z,264.2308
2023-04-18T07:23:39.317Z,276.3077
2023-04-18T07:24:40.331Z,282.3846
2023-04-18T07:25:41.352Z,277.6923
2023-04-18T07:26:42.398Z,268.5385
2023-04-18T07:27:43.462Z,289.0000
2023-04-18T07:28:44.531Z,288.2308
2023-04-18T07:29:45.525Z,253.3846
2023-04-18T07:30:46.578Z,127.0769
2023-04-18T07:31:47.556Z,113.0000
2023-04-18T07:32:48.754Z,222.5385
2023-04-18T07:33:49.645Z,252.3846
2023-04-18T07:34:50.678Z,245.6154
2023-04-18T07:35:51.739Z,197.9231
2023-04-18T07:36:52.769Z,215.3846
2023-04-18T07:37:53.820Z,243.8462
2023-04-18T07:38:54.848Z,248.2308
2023-04-18T07:39:56.062Z,241.9231
2023-04-18T07:40:56.885Z,264.3077
2023-04-18T07:41:57.872Z,254.8462
2023-04-18T07:42:59.045Z,238.0000
2023-04-18T07:43:59.975Z,207.4615
2023-04-18T07:45:00.999Z,202.6154
2023-04-18T07:46:02.632Z,202.2308
2023-04-18T07:47:02.994Z,245.4615
2023-04-18T07:48:04.127Z,254.7692
2023-04-18T07:49:05.068Z,258.3846
2023-04-18T07:50:06.109Z,247.6154
2023-04-18T07:51:07.589Z,158.7692
2023-04-18T07:52:08.162Z,224.6154
2023-04-18T07:53:09.235Z,269.1538
2023-04-18T07:54:10.242Z,282.8462
2023-04-18T07:55:11.292Z,268.6154
2023-04-18T07:56:12.316Z,260.4615
2023-04-18T07:57:13.822Z,264.3846
2023-04-18T07:58:14.380Z,263.4615
2023-04-18T07:59:15.732Z,252.0769
2023-04-18T08:00:16.467Z,244.5385
2023-04-18T08:01:17.522Z,239.1538
2023-04-18T08:02:18.560Z,229.6154
2023-04-18T08:03:20.113Z,214.7692
2023-04-18T08:04:20.704Z,176.0769
2023-04-18T08:05:21.673Z,188.3077
2023-04-18T08:06:22.646Z,242.7692
2023-04-18T08:07:23.700Z,249.6154
2023-04-18T08:08:24.799Z,246.1538
2023-04-18T08:09:25.805Z,244.8462
2023-04-18T08:10:26.882Z,240.9231
2023-04-18T08:11:27.895Z,233.0000
2023-04-18T08:12:28.922Z,237.6154
2023-04-18T08:13:30.012Z,249.4615
2023-04-18T08:14:30.947Z,264.6923
2023-04-18T08:15:32.028Z,259.0769
2023-04-18T08:16:33.078Z,243.4615
2023-04-18T08:17:34.137Z,252.3077
2023-04-18T08:18:35.179Z,255.6154
2023-04-18T08:19:36.159Z,251.8462
2023-04-18T08:20:37.278Z,243.8462
2023-04-18T08:21:38.221Z,240.2308
2023-04-18T08:22:49.981Z,230.4615
2023-04-18T08:23:40.342Z,236.0000
2023-04-18T08:24:44.549Z,243.4615
2023-04-18T08:25:42.355Z,244.3077
2023-04-18T08:26:43.436Z,228.8462
2023-04-18T08:27:44.431Z,233.9231
2023-04-18T08:28:46.484Z,238.3846
2023-04-18T08:29:46.566Z,237.4615
2023-04-18T08:30:47.562Z,243.0000
2023-04-18T08:31:48.649Z,242.9231
2023-04-18T08:32:49.817Z,245.2308
2023-04-18T08:33:50.699Z,256.0000
2023-04-18T08:34:51.746Z,230.3077
2023-04-18T08:35:52.721Z,238.8462
2023-04-18T08:36:53.785Z,241.8462
2023-04-18T08:37:54.789Z,239.5385
2023-04-18T08:38:55.873Z,240.1538
2023-04-18T08:39:56.869Z,245.8462
2023-04-18T08:40:57.879Z,247.0000
2023-04-18T08:41:58.948Z,247.9231
2023-04-18T08:43:00.008Z,244.6923
2023-04-18T08:44:01.182Z,242.1538
2023-04-18T08:45:02.182Z,245.0769
2023-04-18T08:46:03.375Z,238.0000
2023-04-18T08:47:04.253Z,247.3077
2023-04-18T08:48:05.279Z,248.6154
2023-04-18T08:49:06.425Z,249.3846
2023-04-18T08:50:07.321Z,238.2308
2023-04-18T08:51:08.356Z,232.3077
2023-04-18T08:52:09.405Z,201.3077
2023-04-18T08:53:10.442Z,223.3077
2023-04-18T08:54:11.586Z,212.3077
2023-04-18T08:55:12.529Z,222.6923
2023-04-18T08:56:13.577Z,121.3846
2023-04-18T08:57:14.590Z,141.6154
2023-04-18T08:58:15.679Z,204.0000
2023-04-18T08:59:16.694Z,233.5385
2023-04-18T09:00:17.735Z,239.6923
2023-04-18T09:01:18.769Z,244.5385
2023-04-18T09:02:19.817Z,251.6923
2023-04-18T09:03:20.805Z,242.2308
2023-04-18T09:04:22.076Z,242.3846
2023-04-18T09:05:22.883Z,242.5385
2023-04-18T09:06:24.379Z,240.3846
2023-04-18T09:07:24.978Z,246.6923
2023-04-18T09:08:26.037Z,245.2308
2023-04-18T09:09:27.089Z,248.2308
2023-04-18T09:10:28.142Z,246.0769
2023-04-18T09:11:29.525Z,244.4615
2023-04-18T09:12:30.212Z,250.0000
2023-04-18T09:13:31.243Z,239.0769
2023-04-18T09:14:32.301Z,235.9231
2023-04-18T09:15:33.315Z,246.4615
2023-04-18T09:16:34.478Z,258.8462
2023-04-18T09:17:35.417Z,278.4615
2023-04-18T09:18:36.412Z,274.0000
2023-04-18T09:19:37.546Z,266.4615
2023-04-18T09:20:38.615Z,258.0769
2023-04-18T09:21:39.569Z,258.5385
2023-04-18T09:22:40.600Z,246.3846
2023-04-18T09:23:41.610Z,250.7692
2023-04-18T09:24:42.615Z,272.1538
2023-04-18T09:25:44.958Z,279.3077
2023-04-18T09:26:44.654Z,279.1538
2023-04-18T09:27:45.705Z,271.6154
2023-04-18T09:28:46.738Z,256.3846
2023-04-18T09:29:47.815Z,254.9231
2023-04-18T09:30:48.828Z,255.5385
2023-04-18T09:31:49.873Z,262.8462
2023-04-18T09:32:50.967Z,266.8462
2023-04-18T09:33:51.952Z,99.0000
2023-04-18T09:34:53.152Z,145.6923
2023-04-18T09:35:54.010Z,226.4615
2023-04-18T09:36:55.104Z,240.6154
2023-04-18T09:37:56.084Z,248.6154
2023-04-18T09:38:57.458Z,250.0000
2023-04-18T09:39:58.220Z,252.6154
2023-04-18T09:40:59.183Z,249.2308
2023-04-18T09:42:00.250Z,247.8462
2023-04-18T09:43:01.277Z,241.7692
2023-04-18T09:44:02.371Z,106.9231
2023-04-18T09:45:03.452Z,96.0769
2023-04-18T09:46:04.515Z,204.9231
2023-04-18T09:47:05.459Z,243.6923
2023-04-18T09:48:06.537Z,246.1538
2023-04-18T09:49:09.676Z,251.4615
2023-04-18T09:50:08.662Z,250.0000
2023-04-18T09:51:09.689Z,247.8462
2023-04-18T09:52:10.689Z,246.4615
2023-04-18T09:53:11.701Z,255.4615
2023-04-18T09:54:12.931Z,259.9231
2023-04-18T09:55:13.902Z,274.6154
2023-04-18T09:56:14.846Z,270.0000
2023-04-18T09:57:15.874Z,252.0000
2023-04-18T09:58:16.944Z,240.4615
2023-04-18T09:59:20.507Z,251.6154
2023-04-18T10:00:18.993Z,258.5385
2023-04-18T10:01:20.135Z,273.4615
2023-04-18T10:02:21.192Z,260.7692
2023-04-18T10:03:22.256Z,262.6154
2023-04-18T10:04:23.213Z,246.3846
2023-04-18T10:05:24.250Z,79.9231
2023-04-18T10:06:25.238Z,152.3846
2023-04-18T10:07:26.325Z,242.7692
2023-04-18T10:08:27.356Z,267.7692
2023-04-18T10:09:28.455Z,268.8462
2023-04-18T10:10:29.530Z,276.3846
2023-04-18T10:11:30.546Z,268.6154
2023-04-18T10:12:31.508Z,261.3846
2023-04-18T10:13:32.568Z,263.1538
2023-04-18T10:14:33.602Z,263.8462
2023-04-18T10:15:34.638Z,222.2308
2023-04-18T10:16:36.407Z,151.1538
2023-04-18T10:17:36.762Z,101.5385
2023-04-18T10:18:38.087Z,115.7692
2023-04-18T10:19:38.791Z,215.3846
2023-04-18T10:20:40.083Z,244.2308
2023-04-18T10:21:41.001Z,237.4615
2023-04-18T10:22:41.935Z,152.4615
2023-04-18T10:23:42.949Z,212.6923
2023-04-18T10:24:44.008Z,238.2308
2023-04-18T10:25:45.008Z,249.9231
2023-04-18T10:26:46.156Z,261.4615
2023-04-18T10:27:47.177Z,269.0000
2023-04-18T10:28:48.180Z,269.5385
2023-04-18T10:29:49.183Z,275.6154
2023-04-18T10:30:50.242Z,269.6154
2023-04-18T10:31:51.383Z,264.9231
2023-04-18T10:32:52.336Z,260.4615
2023-04-18T10:34:04.014Z,261.3846
2023-04-18T10:34:54.433Z,258.4615
2023-04-18T10:35:55.401Z,262.8462
2023-04-18T10:36:56.475Z,261.1538
2023-04-18T10:37:57.481Z,264.0000
2023-04-18T10:38:58.520Z,254.2308
2023-04-18T10:39:59.532Z,265.1538
2023-04-18T10:41:00.594Z,269.4615
2023-04-18T10:42:01.657Z,253.6154
2023-04-18T10:43:02.779Z,205.2308
2023-04-18T10:44:03.694Z,263.0769
2023-04-18T10:45:04.729Z,275.2308
2023-04-18T10:46:07.439Z,280.5385
2023-04-18T10:47:06.921Z,283.8462
2023-04-18T10:48:07.873Z,308.3846
2023-04-18T10:49:08.886Z,290.6923
2023-04-18T10:50:09.926Z,255.0769
2023-04-18T10:51:11.098Z,266.0000
2023-04-18T10:52:13.364Z,278.0000
2023-04-18T10:53:13.072Z,279.0000
2023-04-18T10:54:14.212Z,261.4615
2023-04-18T10:55:15.168Z,256.0000
2023-04-18T10:56:16.190Z,266.0769
2023-04-18T10:57:17.302Z,270.9231
2023-04-18T10:58:18.168Z,274.9231
2023-04-18T10:59:19.234Z,304.6923
2023-04-18T11:00:20.416Z,323.0000
2023-04-18T11:01:21.331Z,319.0000
2023-04-18T11:02:22.396Z,305.5385
2023-04-18T11:03:23.506Z,284.6923
2023-04-18T11:04:24.510Z,258.0000
2023-04-18T11:05:25.463Z,229.6923
2023-04-18T11:06:26.479Z,233.6923
2023-04-18T11:07:29.921Z,193.6154
2023-04-18T11:08:28.572Z,240.7692
2023-04-18T11:09:29.614Z,279.0769
2023-04-18T11:10:30.667Z,288.5385
2023-04-18T11:11:31.763Z,286.6923
2023-04-18T11:12:32.826Z,289.9231
2023-04-18T11:13:33.850Z,271.1538
2023-04-18T11:14:35.016Z,278.1538
2023-04-18T11:15:36.105Z,277.6923
2023-04-18T11:16:36.979Z,270.4615
2023-04-18T11:17:38.034Z,278.8462
2023-04-18T11:18:39.042Z,277.2308
2023-04-18T11:19:40.092Z,278.6923
2023-04-18T11:20:41.120Z,248.6154
2023-04-18T11:21:42.188Z,263.6923
2023-04-18T11:22:43.206Z,275.1538
2023-04-18T11:23:44.290Z,138.4615
2023-04-18T11:24:45.264Z,229.9231
2023-04-18T11:25:46.308Z,271.5385
2023-04-18T11:26:47.299Z,292.4615
2023-04-18T11:27:48.376Z,287.4615
2023-04-18T11:28:49.401Z,265.1538
2023-04-18T11:29:50.409Z,270.5385
2023-04-18T11:30:51.438Z,267.8462
2023-04-18T11:31:52.831Z,273.4615
2023-04-18T11:32:53.565Z,282.2308
2023-04-18T11:33:54.583Z,286.3846
2023-04-18T11:34:55.570Z,287.3077
2023-04-18T11:35:56.635Z,284.6154
2023-04-18T11:36:57.647Z,279.7692
2023-04-18T11:37:58.664Z,281.4615
2023-04-18T11:38:59.793Z,278.6923
2023-04-18T11:40:00.773Z,269.0000
2023-04-18T11:41:01.811Z,264.4615
2023-04-18T11:42:02.842Z,275.3846
2023-04-18T11:43:03.875Z,282.8462
2023-04-18T11:44:04.989Z,283.1538
2023-04-18T11:45:05.941Z,292.0769
2023-04-18T11:46:07.010Z,285.1538
2023-04-18T11:47:08.022Z,299.8462
2023-04-18T11:48:09.191Z,281.0769
2023-04-18T11:49:10.132Z,265.2308
2023-04-18T11:50:11.121Z,272.0769
2023-04-18T11:51:12.326Z,292.3846
2023-04-18T11:52:13.494Z,175.5385
2023-04-18T11:53:14.232Z,183.0769
2023-04-18T11:54:15.441Z,209.3077
2023-04-18T11:55:16.318Z,190.8462
2023-04-18T11:56:17.373Z,90.0769